Time;durP1;ratioP1;P1;durP2;ratioP2;P2;SDS_P1;SDS_P2;PMS_P1;PMS_P2;Temp;Humidity;BMP_temperature;BMP_pressure;BME280_temperature;BME280_humidity;BME280_pressure;Samples;Min_cycle;Max_cycle;Signal;HPM_P1;HPM_P2
2024/01/17 00:01:21;;;;;;;0.10;0.10;;;;;;;3.94;62.11;100244.41;5035968;28;20119;-40
2024/01/17 00:03:46;;;;;;;0.10;0.10;;;;;;;3.89;61.55;100233.34;5040746;28;20035;-39
2024/01/17 00:06:11;;;;;;;0.75;0.75;;;;;;;4.01;61.83;100234.63;5038624;28;20487;-40
2024/01/17 00:08:37;;;;;;;5.15;1.08;;;;;;;4.02;61.55;100220.69;5032030;28;20175;-40
2024/01/17 00:11:02;;;;;;;0.10;0.10;;;;;;;3.96;61.23;100233.06;5037218;28;20399;-40
2024/01/17 00:13:27;;;;;;;0.10;0.10;;;;;;;3.95;61.37;100220.94;5039594;28;20659;-39
2024/01/17 00:15:53;;;;;;;0.38;0.38;;;;;;;3.95;61.06;100231.34;5040711;28;20029;-40
2024/01/17 00:18:18;;;;;;;0.10;0.10;;;;;;;3.94;60.99;100223.59;5046481;28;20036;-40
2024/01/17 00:20:43;;;;;;;0.10;0.10;;;;;;;3.88;61.13;100218.63;5039081;28;20029;-40
2024/01/17 00:23:09;;;;;;;0.45;0.45;;;;;;;3.86;60.82;100226.47;5041305;28;20120;-40
2024/01/17 00:25:34;;;;;;;0.17;0.17;;;;;;;3.82;61.08;100219.72;5031760;28;20044;-40
2024/01/17 00:27:59;;;;;;;0.10;0.10;;;;;;;3.62;61.22;100218.69;5044452;28;20411;-39
2024/01/17 00:30:25;;;;;;;0.10;0.10;;;;;;;3.73;61.21;100220.03;5041251;28;20048;-40
2024/01/17 00:32:50;;;;;;;0.10;0.10;;;;;;;3.73;61.15;100214.84;5038804;28;20461;-39
2024/01/17 00:35:16;;;;;;;0.10;0.10;;;;;;;3.74;61.18;100211.34;5043994;28;20076;-39
2024/01/17 00:37:41;;;;;;;0.10;0.10;;;;;;;3.73;60.99;100207.91;5037938;28;20462;-40
2024/01/17 00:40:07;;;;;;;0.10;0.10;;;;;;;3.71;60.94;100203.63;5043821;28;20073;-40
2024/01/17 00:42:33;;;;;;;0.10;0.10;;;;;;;3.69;60.71;100202.88;5040566;28;20063;-40
2024/01/17 00:44:59;;;;;;;0.10;0.10;;;;;;;3.60;61.06;100209.28;5038121;28;20025;-40
2024/01/17 00:47:24;;;;;;;14.50;3.20;;;;;;;3.59;60.93;100204.97;5039264;28;20088;-40
2024/01/17 00:49:49;;;;;;;0.10;0.10;;;;;;;3.40;60.84;100204.81;5045276;28;20441;-40
2024/01/17 00:52:14;;;;;;;0.10;0.10;;;;;;;3.44;60.64;100208.97;5044080;28;20861;-39
2024/01/17 00:54:40;;;;;;;0.10;0.10;;;;;;;3.21;60.77;100205.47;5043106;28;20025;-40
2024/01/17 00:57:05;;;;;;;0.15;0.15;;;;;;;3.12;60.68;100206.63;5042853;28;20029;-40
2024/01/17 00:59:30;;;;;;;0.10;0.10;;;;;;;3.24;61.44;100205.38;5039499;28;20380;-40
2024/01/17 01:01:55;;;;;;;0.10;0.10;;;;;;;3.09;61.09;100211.09;5039236;28;20040;-40
2024/01/17 01:04:21;;;;;;;0.10;0.10;;;;;;;3.04;61.32;100212.09;5040872;28;20029;-40
2024/01/17 01:06:46;;;;;;;0.10;0.10;;;;;;;2.93;61.28;100208.16;5041944;28;20255;-40
2024/01/17 01:09:11;;;;;;;0.85;0.30;;;;;;;2.61;61.26;100198.00;5039704;28;20404;-40
2024/01/17 01:11:37;;;;;;;0.20;0.20;;;;;;;2.79;61.83;100198.28;5043487;28;20041;-40
2024/01/17 01:14:02;;;;;;;0.47;0.47;;;;;;;2.66;62.42;100190.03;5042376;28;20044;-40
2024/01/17 01:16:27;;;;;;;0.10;0.10;;;;;;;2.63;62.32;100192.72;5019710;28;20043;-39
2024/01/17 01:18:53;;;;;;;0.10;0.10;;;;;;;2.53;62.28;100189.59;5044862;28;20030;-40
2024/01/17 01:21:19;;;;;;;0.10;0.10;;;;;;;2.78;62.44;100188.78;5045338;28;20021;-40
2024/01/17 01:23:45;;;;;;;0.20;0.20;;;;;;;2.66;62.12;100196.06;5047259;28;20025;-39
2024/01/17 01:26:10;;;;;;;1.00;1.00;;;;;;;2.56;62.29;100192.94;5046378;28;20552;-40
2024/01/17 01:28:36;;;;;;;0.32;0.32;;;;;;;2.62;62.15;100186.69;5049776;28;20033;-40
2024/01/17 01:31:01;;;;;;;0.32;0.32;;;;;;;2.50;63.04;100189.69;5043191;28;20037;-40
2024/01/17 01:33:26;;;;;;;0.20;0.20;;;;;;;2.57;62.89;100186.00;5046394;28;20056;-40
2024/01/17 01:35:51;;;;;;;0.30;0.30;;;;;;;2.73;62.46;100181.13;5026056;28;20052;-40
2024/01/17 01:38:17;;;;;;;0.10;0.10;;;;;;;2.69;61.99;100176.94;5036618;28;20045;-40
2024/01/17 01:40:42;;;;;;;0.10;0.10;;;;;;;2.66;62.29;100170.09;5023685;28;20082;-39
2024/01/17 01:43:18;;;;;;;0.20;0.20;;;;;;;2.77;62.05;100171.50;5041066;28;20058;-40
2024/01/17 01:45:43;;;;;;;0.10;0.10;;;;;;;2.60;62.01;100170.31;5041797;28;20031;-39
2024/01/17 01:48:08;;;;;;;0.10;0.10;;;;;;;2.73;62.23;100176.78;5040824;28;20025;-40
2024/01/17 01:50:34;;;;;;;0.10;0.10;;;;;;;2.69;61.84;100177.78;5040826;28;20115;-40
2024/01/17 01:52:59;;;;;;;0.20;0.20;;;;;;;2.56;62.44;100173.91;5042517;28;20037;-40
2024/01/17 01:55:24;;;;;;;0.10;0.10;;;;;;;2.67;62.25;100166.59;5027648;28;20518;-40
2024/01/17 01:57:51;;;;;;;0.10;0.10;;;;;;;2.56;62.00;100158.31;5041631;28;20037;-40
2024/01/17 02:00:17;;;;;;;0.13;0.13;;;;;;;2.67;62.24;100156.19;5042634;28;20163;-40
2024/01/17 02:02:44;;;;;;;0.55;0.55;;;;;;;2.61;61.79;100156.41;5046574;28;20033;-40
2024/01/17 02:05:10;;;;;;;0.10;0.10;;;;;;;2.54;61.81;100154.91;5037093;28;20044;-40
2024/01/17 02:07:37;;;;;;;0.20;0.20;;;;;;;2.58;61.67;100151.31;5027129;28;21012;-40
2024/01/17 02:10:03;;;;;;;0.10;0.10;;;;;;;2.53;61.83;100150.63;5038747;28;20124;-40
2024/01/17 02:12:30;;;;;;;0.10;0.10;;;;;;;2.53;61.99;100148.03;5042136;28;20087;-40
2024/01/17 02:14:55;;;;;;;0.10;0.10;;;;;;;2.41;61.63;100146.72;5041648;28;20848;-40
2024/01/17 02:17:20;;;;;;;1.13;1.13;;;;;;;2.25;62.11;100148.94;5038206;28;20067;-40
2024/01/17 02:19:46;;;;;;;0.20;0.20;;;;;;;2.30;62.36;100147.06;5042701;28;20025;-40
2024/01/17 02:22:11;;;;;;;0.10;0.10;;;;;;;2.32;62.66;100142.66;5042388;28;20032;-39
2024/01/17 02:24:36;;;;;;;0.10;0.10;;;;;;;2.42;62.67;100146.66;5042913;28;20025;-39
2024/01/17 02:27:02;;;;;;;0.20;0.20;;;;;;;2.34;62.34;100140.00;5041316;28;20156;-39
2024/01/17 02:29:28;;;;;;;0.20;0.20;;;;;;;2.41;62.32;100142.34;5044013;28;20090;-40
2024/01/17 02:31:54;;;;;;;0.10;0.10;;;;;;;2.31;61.79;100133.19;5041209;28;20078;-40
2024/01/17 02:34:19;;;;;;;0.10;0.10;;;;;;;2.32;62.61;100137.47;5042612;28;20041;-39
2024/01/17 02:36:44;;;;;;;0.20;0.20;;;;;;;2.21;61.95;100129.19;5042405;28;20029;-40
2024/01/17 02:39:10;;;;;;;0.20;0.20;;;;;;;2.19;61.75;100128.41;5040846;28;20146;-39
2024/01/17 02:41:35;;;;;;;0.20;0.20;;;;;;;2.36;62.08;100125.22;5040922;28;20039;-39
2024/01/17 02:44:01;;;;;;;0.10;0.10;;;;;;;2.29;61.81;100119.41;5043117;28;20104;-39
2024/01/17 02:46:28;;;;;;;0.20;0.20;;;;;;;2.28;62.14;100117.69;5037619;28;20048;-40
2024/01/17 02:48:53;;;;;;;0.10;0.10;;;;;;;2.29;61.90;100115.03;5036586;28;20029;-40
2024/01/17 02:51:18;;;;;;;0.85;0.85;;;;;;;2.22;61.95;100108.38;5042026;28;20088;-40
2024/01/17 02:53:44;;;;;;;0.10;0.10;;;;;;;2.17;61.88;100115.44;5038951;28;20057;-39
2024/01/17 02:56:09;;;;;;;0.10;0.10;;;;;;;2.22;61.98;100116.16;5042948;28;20392;-40
2024/01/17 02:58:34;;;;;;;0.52;0.52;;;;;;;2.24;62.20;100108.31;5046137;28;20068;-39
2024/01/17 03:01:00;;;;;;;0.20;0.20;;;;;;;2.33;61.88;100105.44;5040825;28;20031;-40
2024/01/17 03:03:25;;;;;;;0.10;0.10;;;;;;;2.22;61.67;100104.91;5041465;28;20395;-39
2024/01/17 03:05:50;;;;;;;0.10;0.10;;;;;;;2.04;61.63;100099.44;5025471;28;20060;-40
2024/01/17 03:08:15;;;;;;;0.20;0.20;;;;;;;2.14;61.83;100092.19;5042984;28;20033;-40
2024/01/17 03:10:41;;;;;;;0.20;0.20;;;;;;;2.22;61.90;100091.94;5044554;28;20037;-39
2024/01/17 03:13:07;;;;;;;0.10;0.10;;;;;;;2.17;61.61;100096.44;5040345;28;20033;-39
2024/01/17 03:15:32;;;;;;;0.10;0.10;;;;;;;2.20;61.69;100094.59;5042848;28;20064;-39
2024/01/17 03:18:00;;;;;;;0.10;0.10;;;;;;;2.19;61.33;100097.25;5040043;28;20033;-40
2024/01/17 03:20:25;;;;;;;0.10;0.10;;;;;;;2.15;61.41;100085.25;5040632;28;20036;-39
2024/01/17 03:22:53;;;;;;;0.20;0.20;;;;;;;2.02;60.92;100083.09;5040248;28;20036;-39
2024/01/17 03:25:19;;;;;;;0.10;0.10;;;;;;;2.16;61.41;100086.97;5036029;28;20040;-40
2024/01/17 03:27:44;;;;;;;0.10;0.10;;;;;;;2.15;61.63;100082.66;5037906;28;20037;-40
2024/01/17 03:30:10;;;;;;;0.10;0.10;;;;;;;2.07;61.00;100077.72;5036048;28;20056;-40
2024/01/17 03:32:35;;;;;;;0.10;0.10;;;;;;;1.82;60.33;100073.31;5039968;28;20120;-39
2024/01/17 03:35:00;;;;;;;0.52;0.52;;;;;;;2.03;61.24;100077.00;5025863;28;20098;-40
2024/01/17 03:37:25;;;;;;;0.10;0.10;;;;;;;1.97;61.27;100072.00;5038735;28;20052;-39
2024/01/17 03:39:51;;;;;;;0.20;0.20;;;;;;;2.02;61.28;100061.47;5023465;28;20127;-40
2024/01/17 03:42:16;;;;;;;0.88;0.70;;;;;;;2.10;61.17;100059.47;5041138;28;20381;-40
2024/01/17 03:44:45;;;;;;;0.20;0.20;;;;;;;2.05;61.08;100054.41;5035525;28;20049;-39
2024/01/17 03:47:11;;;;;;;0.20;0.20;;;;;;;1.90;60.63;100047.13;5040270;28;20116;-40
2024/01/17 03:49:37;;;;;;;0.10;0.10;;;;;;;2.01;61.13;100047.66;5025426;28;20033;-40
2024/01/17 03:52:09;;;;;;;0.10;0.10;;;;;;;2.02;60.84;100051.06;5041318;28;20077;-40
2024/01/17 03:54:38;;;;;;;0.20;0.20;;;;;;;2.13;61.44;100047.22;5036099;28;20032;-40
2024/01/17 03:57:04;;;;;;;0.10;0.10;;;;;;;2.19;61.06;100047.94;5043714;28;20114;-39
2024/01/17 03:59:30;;;;;;;0.55;0.55;;;;;;;2.14;60.73;100037.69;5040246;28;20643;-40
2024/01/17 04:01:55;;;;;;;0.10;0.10;;;;;;;2.10;60.57;100047.31;5043235;28;20068;-39
2024/01/17 04:04:21;;;;;;;0.10;0.10;;;;;;;2.09;60.81;100035.25;5042607;28;20029;-40
2024/01/17 04:06:46;;;;;;;0.10;0.10;;;;;;;2.15;60.62;100036.78;5041001;28;20040;-39
2024/01/17 04:09:12;;;;;;;0.10;0.10;;;;;;;1.92;59.66;100035.81;5045721;28;20194;-39
2024/01/17 04:11:37;;;;;;;0.10;0.10;;;;;;;2.09;60.95;100034.41;5042446;28;21066;-39
2024/01/17 04:14:02;;;;;;;0.10;0.10;;;;;;;2.09;60.40;100043.03;5043658;28;20070;-40
2024/01/17 04:16:27;;;;;;;0.20;0.20;;;;;;;1.85;60.07;100039.50;5025048;28;20033;-39
2024/01/17 04:18:53;;;;;;;1.15;1.15;;;;;;;2.05;60.67;100035.41;5045637;28;20028;-39
2024/01/17 04:21:20;;;;;;;0.40;0.40;;;;;;;2.15;60.68;100031.59;5040467;28;20055;-39
2024/01/17 04:23:47;;;;;;;0.75;0.75;;;;;;;2.05;60.42;100020.66;5040566;28;20033;-39
2024/01/17 04:26:23;;;;;;;0.10;0.10;;;;;;;2.00;60.51;100013.94;5038046;28;20045;-39
2024/01/17 04:28:50;;;;;;;0.10;0.10;;;;;;;1.93;60.39;100014.16;5039958;28;20036;-39
2024/01/17 04:31:27;;;;;;;0.10;0.10;;;;;;;1.88;60.28;100015.22;5036972;28;20021;-40
2024/01/17 04:33:53;;;;;;;0.20;0.20;;;;;;;1.97;60.35;100007.13;5040405;28;20040;-40
2024/01/17 04:36:19;;;;;;;0.10;0.10;;;;;;;1.94;60.29;100005.50;5036983;28;20040;-39
2024/01/17 04:38:44;;;;;;;1.55;1.50;;;;;;;2.05;60.44;100002.50;5036071;28;20561;-40
2024/01/17 04:41:11;;;;;;;0.20;0.20;;;;;;;2.07;60.48;99992.91;5035735;28;20115;-39
2024/01/17 04:43:37;;;;;;;0.10;0.10;;;;;;;2.05;60.32;99984.34;5040075;28;20021;-39
2024/01/17 04:46:02;;;;;;;0.10;0.10;;;;;;;1.91;60.03;99977.03;5038697;28;20507;-40
2024/01/17 04:48:27;;;;;;;0.20;0.20;;;;;;;2.06;60.19;99972.22;5038616;28;20511;-39
2024/01/17 04:50:58;;;;;;;0.10;0.10;;;;;;;2.06;60.22;99978.25;5044384;28;20032;-39
2024/01/17 04:53:24;;;;;;;0.10;0.10;;;;;;;1.94;59.36;99976.09;5042828;28;20048;-39
2024/01/17 04:55:49;;;;;;;0.10;0.10;;;;;;;1.87;59.65;99966.81;5041878;28;20021;-39
2024/01/17 04:58:14;;;;;;;0.10;0.10;;;;;;;1.87;59.76;99961.63;5035740;28;20041;-40
2024/01/17 05:00:44;;;;;;;0.65;0.65;;;;;;;1.92;60.10;99960.56;5033999;28;20383;-39
2024/01/17 05:03:09;;;;;;;0.10;0.10;;;;;;;2.00;60.22;99954.25;5041044;28;20124;-40
2024/01/17 05:05:34;;;;;;;0.43;0.43;;;;;;;1.97;60.27;99956.06;5047027;28;20028;-40
2024/01/17 05:07:59;;;;;;;0.10;0.10;;;;;;;2.04;60.11;99954.09;5043120;28;20038;-40
2024/01/17 05:10:25;;;;;;;0.20;0.20;;;;;;;2.04;59.97;99954.09;5025491;28;20577;-39
2024/01/17 05:12:50;;;;;;;0.10;0.10;;;;;;;2.06;59.82;99941.09;5043748;28;20039;-39
2024/01/17 05:15:15;;;;;;;0.10;0.10;;;;;;;2.08;59.78;99940.13;5041794;28;20073;-39
2024/01/17 05:17:40;;;;;;;2.58;2.50;;;;;;;2.09;59.93;99940.97;5041270;28;20403;-40
2024/01/17 05:20:07;;;;;;;0.10;0.10;;;;;;;2.11;59.95;99934.00;5044543;28;20021;-40
2024/01/17 05:22:32;;;;;;;0.20;0.20;;;;;;;2.12;59.95;99926.13;5045561;28;20064;-39
2024/01/17 05:24:57;;;;;;;0.10;0.10;;;;;;;2.08;59.44;99927.13;5040307;28;20472;-39
2024/01/17 05:27:23;;;;;;;0.13;0.13;;;;;;;2.07;59.55;99915.06;5044611;28;20048;-39
2024/01/17 05:29:48;;;;;;;0.10;0.10;;;;;;;2.10;59.64;99917.56;5044842;28;20054;-39
2024/01/17 05:32:14;;;;;;;0.10;0.10;;;;;;;2.04;59.61;99907.38;5038528;28;20068;-39
2024/01/17 05:34:42;;;;;;;0.10;0.10;;;;;;;1.94;59.11;99901.69;5043116;28;20040;-40
2024/01/17 05:37:10;;;;;;;0.15;0.15;;;;;;;1.94;59.37;99906.03;5043507;28;20025;-40
2024/01/17 05:39:35;;;;;;;0.10;0.10;;;;;;;1.94;59.61;99895.66;5043426;28;20024;-39
2024/01/17 05:42:01;;;;;;;0.17;0.17;;;;;;;1.96;59.16;99888.66;5040334;28;20032;-39
2024/01/17 05:44:26;;;;;;;0.20;0.20;;;;;;;1.94;59.37;99877.47;5043148;28;20576;-39
2024/01/17 05:46:51;;;;;;;0.20;0.20;;;;;;;1.89;59.08;99880.25;5044556;28;20037;-39
2024/01/17 05:49:16;;;;;;;0.68;0.68;;;;;;;1.90;59.03;99884.53;5037694;28;20553;-40
2024/01/17 05:51:42;;;;;;;0.20;0.20;;;;;;;1.96;59.40;99883.47;5042096;28;20031;-39
2024/01/17 05:54:07;;;;;;;0.20;0.20;;;;;;;1.77;59.11;99889.31;5042709;28;20056;-39
2024/01/17 05:56:34;;;;;;;0.20;0.20;;;;;;;1.82;59.47;99890.00;5042403;28;20589;-40
2024/01/17 05:58:59;;;;;;;0.10;0.10;;;;;;;1.88;59.27;99880.31;5043575;28;20026;-39
2024/01/17 06:01:24;;;;;;;0.20;0.20;;;;;;;1.81;59.31;99875.34;5040210;28;20095;-39
2024/01/17 06:03:50;;;;;;;0.10;0.10;;;;;;;1.83;59.49;99868.34;5044969;28;20032;-40
2024/01/17 06:06:16;;;;;;;0.20;0.20;;;;;;;1.82;59.15;99877.03;5041135;28;20124;-39
2024/01/17 06:08:42;;;;;;;0.20;0.20;;;;;;;1.82;59.40;99877.03;5040233;28;20112;-40
2024/01/17 06:11:07;;;;;;;0.10;0.10;;;;;;;1.78;58.91;99875.44;5041366;28;20191;-39
2024/01/17 06:13:32;;;;;;;0.20;0.20;;;;;;;1.64;58.77;99878.53;5040853;28;20044;-40
2024/01/17 06:15:58;;;;;;;0.10;0.10;;;;;;;1.61;58.73;99869.97;5038563;28;20420;-40
2024/01/17 06:18:23;;;;;;;0.10;0.10;;;;;;;1.61;58.82;99872.56;5035845;28;20036;-40
2024/01/17 06:20:48;;;;;;;0.15;0.15;;;;;;;1.63;59.59;99875.97;5041495;28;20040;-39
2024/01/17 06:23:13;;;;;;;0.10;0.10;;;;;;;1.56;59.62;99864.13;5041507;28;20033;-39
2024/01/17 06:25:39;;;;;;;0.10;0.10;;;;;;;1.56;58.89;99864.13;5040271;28;20406;-39
2024/01/17 06:28:04;;;;;;;0.20;0.20;;;;;;;1.65;59.28;99861.22;5040695;28;20041;-39
2024/01/17 06:30:29;;;;;;;0.10;0.10;;;;;;;1.71;59.25;99857.53;5041252;28;20048;-39
2024/01/17 06:32:55;;;;;;;0.10;0.10;;;;;;;1.67;59.08;99849.88;5046584;28;20033;-40
2024/01/17 06:35:20;;;;;;;0.10;0.10;;;;;;;1.45;58.21;99834.22;5043921;28;20037;-39
2024/01/17 06:37:45;;;;;;;0.10;0.10;;;;;;;1.46;59.18;99837.66;5045081;28;20506;-39
2024/01/17 06:40:11;;;;;;;0.10;0.10;;;;;;;1.41;58.57;99832.66;5044570;28;20025;-39
2024/01/17 06:42:36;;;;;;;0.10;0.10;;;;;;;1.50;59.06;99834.91;5024719;28;20033;-39
2024/01/17 06:45:01;;;;;;;0.20;0.20;;;;;;;1.55;59.28;99815.75;5045795;28;20048;-39
2024/01/17 06:47:27;;;;;;;0.30;0.30;;;;;;;1.58;59.30;99820.84;5042807;28;20123;-40
2024/01/17 06:49:52;;;;;;;0.10;0.10;;;;;;;1.54;58.55;99816.66;5042813;28;20347;-40
2024/01/17 06:52:17;;;;;;;0.20;0.20;;;;;;;1.43;58.61;99819.63;5029298;28;20041;-39
2024/01/17 06:54:42;;;;;;;0.52;0.52;;;;;;;1.39;58.56;99818.88;5040180;28;20032;-39
2024/01/17 06:57:08;;;;;;;0.10;0.10;;;;;;;1.44;59.14;99814.38;5022615;28;20032;-40
2024/01/17 06:59:33;;;;;;;0.10;0.10;;;;;;;1.47;59.46;99803.06;5038630;28;20021;-39
2024/01/17 07:01:59;;;;;;;0.10;0.10;;;;;;;1.43;58.92;99797.16;5035647;28;20098;-40
2024/01/17 07:04:24;;;;;;;0.10;0.10;;;;;;;1.45;58.81;99795.31;5044875;28;20033;-39
2024/01/17 07:06:49;;;;;;;0.10;0.10;;;;;;;1.37;57.96;99789.56;5031172;28;20040;-39
2024/01/17 07:09:14;;;;;;;0.10;0.10;;;;;;;1.30;59.08;99785.50;5038212;28;20150;-39
2024/01/17 07:11:40;;;;;;;0.10;0.10;;;;;;;1.40;59.03;99781.69;5039773;28;20025;-40
2024/01/17 07:14:05;;;;;;;0.10;0.10;;;;;;;1.40;59.19;99781.69;5022837;28;20025;-39
2024/01/17 07:16:30;;;;;;;0.10;0.10;;;;;;;1.44;59.23;99766.88;5036925;28;20495;-40
2024/01/17 07:18:57;;;;;;;0.85;0.85;;;;;;;1.28;58.30;99762.22;5020805;28;20028;-40
2024/01/17 07:21:22;;;;;;;0.10;0.10;;;;;;;1.37;59.03;99755.88;5043250;28;20029;-39
2024/01/17 07:23:48;;;;;;;0.10;0.10;;;;;;;1.45;59.06;99756.44;5042007;28;20036;-40
2024/01/17 07:26:13;;;;;;;0.10;0.10;;;;;;;1.33;58.70;99746.50;5037388;28;20570;-40
2024/01/17 07:28:38;;;;;;;0.10;0.10;;;;;;;1.17;58.54;99744.44;5042811;28;20036;-40
2024/01/17 07:31:03;;;;;;;0.10;0.10;;;;;;;1.31;59.14;99740.53;5040616;28;20037;-39
2024/01/17 07:33:29;;;;;;;0.10;0.10;;;;;;;1.14;58.07;99739.38;5048075;28;20480;-39
2024/01/17 07:35:54;;;;;;;0.10;0.10;;;;;;;1.26;59.07;99742.47;5045477;28;20064;-40
2024/01/17 07:38:20;;;;;;;0.85;0.85;;;;;;;1.39;59.14;99730.75;5039768;28;20037;-39
2024/01/17 07:40:46;;;;;;;0.10;0.10;;;;;;;1.37;58.73;99729.94;5039430;28;20518;-39
2024/01/17 07:43:11;;;;;;;0.10;0.10;;;;;;;1.27;58.46;99729.44;5041802;28;20107;-40
2024/01/17 07:45:36;;;;;;;0.10;0.10;;;;;;;1.45;59.25;99722.72;5043667;28;20117;-39
2024/01/17 07:48:02;;;;;;;0.15;0.15;;;;;;;1.51;59.14;99721.69;5041892;28;20222;-39
2024/01/17 07:50:27;;;;;;;0.17;0.17;;;;;;;1.31;57.96;99709.44;5041125;28;20033;-40
2024/01/17 07:52:53;;;;;;;0.10;0.10;;;;;;;1.30;58.70;99712.91;5044396;28;20028;-40
2024/01/17 07:55:18;;;;;;;0.17;0.17;;;;;;;1.46;58.75;99706.28;5038943;28;20028;-39
2024/01/17 07:57:43;;;;;;;0.10;0.10;;;;;;;1.36;57.49;99697.16;5043110;28;20553;-40
2024/01/17 08:00:11;;;;;;;0.20;0.20;;;;;;;1.42;58.52;99707.31;5038686;28;20545;-43
2024/01/17 08:02:37;;;;;;;0.10;0.10;;;;;;;1.57;59.04;99707.66;5045392;28;20079;-40
2024/01/17 08:05:03;;;;;;;0.10;0.10;;;;;;;1.62;58.60;99709.16;5044705;28;20055;-39
2024/01/17 08:07:28;;;;;;;0.20;0.20;;;;;;;1.54;57.60;99700.81;5042435;28;20498;-39
2024/01/17 08:09:54;;;;;;;0.17;0.17;;;;;;;1.41;55.83;99702.16;5042151;28;20029;-39
2024/01/17 08:12:19;;;;;;;0.20;0.20;;;;;;;1.58;57.67;99699.81;5041176;28;20103;-39
2024/01/17 08:14:45;;;;;;;0.20;0.20;;;;;;;1.69;58.30;99694.22;5041659;28;20025;-40
2024/01/17 08:17:11;;;;;;;0.20;0.20;;;;;;;1.73;58.25;99694.94;5043858;28;20108;-39
2024/01/17 08:19:37;;;;;;;1.25;1.25;;;;;;;1.82;58.26;99682.47;5044057;28;20051;-40
2024/01/17 08:22:03;;;;;;;1.48;1.48;;;;;;;1.85;57.60;99678.91;5027266;28;20032;-40
2024/01/17 08:24:29;;;;;;;0.98;0.98;;;;;;;1.91;57.65;99681.28;5039385;28;20119;-40
2024/01/17 08:26:54;;;;;;;0.10;0.10;;;;;;;1.96;57.79;99679.34;5041356;28;20128;-39
2024/01/17 08:29:20;;;;;;;0.10;0.10;;;;;;;1.94;57.42;99662.13;5044497;28;20060;-40
2024/01/17 08:31:45;;;;;;;0.10;0.10;;;;;;;1.98;57.68;99658.53;5044451;28;20116;-39
2024/01/17 08:34:11;;;;;;;0.10;0.10;;;;;;;1.87;56.81;99658.94;5027752;28;20377;-40
2024/01/17 08:36:37;;;;;;;0.20;0.20;;;;;;;1.95;57.54;99653.44;5044678;28;20037;-40
2024/01/17 08:39:05;;;;;;;0.10;0.10;;;;;;;1.85;56.80;99641.75;5048522;28;20062;-39
2024/01/17 08:41:30;;;;;;;0.10;0.10;;;;;;;1.62;56.21;99646.06;5048569;28;20048;-39
2024/01/17 08:43:55;;;;;;;0.20;0.20;;;;;;;1.70;57.66;99638.84;5045493;28;20037;-39
2024/01/17 08:46:21;;;;;;;0.10;0.10;;;;;;;1.68;57.78;99635.47;5044485;28;20055;-39
2024/01/17 08:48:46;;;;;;;0.20;0.20;;;;;;;1.61;57.07;99634.00;5048272;28;20040;-39
2024/01/17 08:51:11;;;;;;;0.20;0.20;;;;;;;1.74;57.62;99617.06;5048984;28;20051;-39
2024/01/17 08:53:38;;;;;;;0.10;0.10;;;;;;;1.70;57.11;99612.91;5048327;28;20029;-40
2024/01/17 08:56:05;;;;;;;6.47;3.13;;;;;;;1.64;56.94;99600.19;5050066;28;20025;-39
2024/01/17 08:58:33;;;;;;;0.10;0.10;;;;;;;1.71;57.25;99595.59;5045763;28;21794;-40
2024/01/17 09:00:59;;;;;;;0.20;0.20;;;;;;;1.81;57.68;99591.75;5043254;28;20033;-39
2024/01/17 09:03:24;;;;;;;0.20;0.20;;;;;;;1.80;57.06;99590.88;5046269;28;20033;-40
2024/01/17 09:05:49;;;;;;;0.10;0.10;;;;;;;1.91;57.65;99599.97;5046796;28;20499;-39
2024/01/17 09:08:15;;;;;;;0.10;0.10;;;;;;;2.06;57.89;99606.31;5048206;28;20028;-40
2024/01/17 09:10:40;;;;;;;0.20;0.20;;;;;;;2.16;57.64;99599.84;5042331;28;20025;-39
2024/01/17 09:13:06;;;;;;;0.20;0.20;;;;;;;2.23;58.04;99603.00;5045138;28;20052;-40
2024/01/17 09:15:32;;;;;;;0.10;0.10;;;;;;;2.34;58.07;99590.47;5043461;28;20025;-40
2024/01/17 09:17:57;;;;;;;0.10;0.10;;;;;;;2.31;57.37;99587.97;5030211;28;20055;-41
2024/01/17 09:20:23;;;;;;;0.10;0.10;;;;;;;2.44;57.77;99583.94;5045760;28;20033;-39
2024/01/17 09:22:48;;;;;;;0.10;0.10;;;;;;;2.50;57.59;99576.78;5047686;28;20048;-39
2024/01/17 09:25:13;;;;;;;0.10;0.10;;;;;;;2.52;57.12;99570.63;5044491;28;20411;-39
2024/01/17 09:27:38;;;;;;;0.10;0.10;;;;;;;2.50;57.26;99566.41;5045434;28;20083;-39
2024/01/17 09:30:04;;;;;;;0.20;0.20;;;;;;;2.58;57.13;99570.34;5044341;28;20056;-40
2024/01/17 09:32:30;;;;;;;0.10;0.10;;;;;;;2.62;57.36;99573.69;5047369;28;20406;-39
2024/01/17 09:34:55;;;;;;;0.20;0.20;;;;;;;2.78;57.93;99560.84;5046653;28;20060;-40
2024/01/17 09:37:20;;;;;;;0.17;0.17;;;;;;;2.90;57.43;99549.09;5045084;28;20071;-40
2024/01/17 09:39:47;;;;;;;0.10;0.10;;;;;;;2.93;57.26;99553.28;5046618;28;20032;-39
2024/01/17 09:42:14;;;;;;;0.10;0.10;;;;;;;2.99;56.94;99559.03;5041867;28;20040;-39
2024/01/17 09:44:40;;;;;;;0.20;0.20;;;;;;;2.96;56.72;99564.38;5044535;28;20489;-40
2024/01/17 09:47:05;;;;;;;0.10;0.10;;;;;;;3.02;56.75;99556.31;5043389;28;20116;-39
2024/01/17 09:49:32;;;;;;;0.10;0.10;;;;;;;3.02;56.65;99548.53;5045626;28;20737;-40
2024/01/17 09:52:03;;;;;;;0.10;0.10;;;;;;;3.02;56.05;99553.72;5029788;28;20112;-39
2024/01/17 09:54:35;;;;;;;0.10;0.10;;;;;;;3.10;56.58;99552.53;5043940;28;20037;-39
2024/01/17 09:57:07;;;;;;;0.10;0.10;;;;;;;2.86;55.38;99542.31;5045894;28;20053;-39
2024/01/17 09:59:34;;;;;;;0.68;0.68;;;;;;;2.92;56.13;99547.25;5043916;28;20041;-40
2024/01/17 10:02:00;;;;;;;0.10;0.10;;;;;;;2.76;55.11;99530.66;5010811;28;20044;-41
2024/01/17 10:04:26;;;;;;;0.10;0.10;;;;;;;2.66;55.04;99536.25;5027289;28;20032;-39
2024/01/17 10:06:55;;;;;;;0.10;0.10;;;;;;;2.85;56.24;99535.44;5043413;28;20103;-40
2024/01/17 10:09:24;;;;;;;0.10;0.10;;;;;;;2.77;55.93;99528.00;5044266;28;20033;-39
2024/01/17 10:11:52;;;;;;;0.10;0.10;;;;;;;2.86;56.37;99514.59;5045134;28;20518;-39
2024/01/17 10:14:18;;;;;;;0.10;0.10;;;;;;;2.95;56.69;99505.53;5039274;28;20558;-39
2024/01/17 10:16:44;;;;;;;0.10;0.10;;;;;;;2.86;55.61;99498.16;5041767;28;20029;-39
2024/01/17 10:19:09;;;;;;;0.10;0.10;;;;;;;2.88;55.23;99493.72;5042738;28;20021;-39
2024/01/17 10:21:35;;;;;;;0.35;0.35;;;;;;;3.07;56.65;99488.53;5039041;28;20434;-39
2024/01/17 10:24:01;;;;;;;0.40;0.40;;;;;;;2.98;55.53;99476.78;5044022;28;20044;-39
2024/01/17 10:26:26;;;;;;;0.30;0.30;;;;;;;3.02;55.83;99475.75;5043913;28;20059;-40
2024/01/17 10:28:52;;;;;;;0.30;0.30;;;;;;;3.15;56.20;99472.56;5045266;28;20531;-40
2024/01/17 10:31:20;;;;;;;0.10;0.10;;;;;;;3.02;54.61;99470.56;5039987;28;20053;-40
2024/01/17 10:33:48;;;;;;;0.10;0.10;;;;;;;3.26;56.06;99464.25;5036102;28;20080;-40
2024/01/17 10:36:13;;;;;;;0.10;0.10;;;;;;;3.44;56.55;99454.72;5024689;28;20103;-40
2024/01/17 10:38:39;;;;;;;0.10;0.10;;;;;;;3.33;55.23;99452.63;5041642;28;20112;-41
2024/01/17 10:41:08;;;;;;;0.20;0.20;;;;;;;3.33;55.48;99447.44;5040381;28;20061;-40
2024/01/17 10:43:50;;;;;;;0.20;0.20;;;;;;;3.37;55.83;99432.56;5039324;28;20059;-40
2024/01/17 10:46:16;;;;;;;0.10;0.10;;;;;;;3.57;56.08;99429.78;5041116;28;20029;-40
2024/01/17 10:48:41;;;;;;;0.10;0.10;;;;;;;3.37;54.97;99432.56;5042768;28;20031;-40
2024/01/17 10:51:09;;;;;;;0.10;0.10;;;;;;;3.57;56.02;99419.38;5044967;28;20442;-40
2024/01/17 10:53:36;;;;;;;0.10;0.10;;;;;;;3.62;55.07;99424.38;5042195;28;20035;-39
2024/01/17 10:56:04;;;;;;;0.20;0.20;;;;;;;3.71;55.56;99423.91;5040752;28;20029;-40
2024/01/17 10:58:34;;;;;;;0.10;0.10;;;;;;;3.69;54.90;99427.50;5038978;28;20037;-39
2024/01/17 11:01:05;;;;;;;0.20;0.20;;;;;;;3.78;54.74;99416.63;5041760;28;20036;-40
2024/01/17 11:03:33;;;;;;;0.10;0.10;;;;;;;3.75;54.26;99407.22;5036069;28;20025;-39
2024/01/17 11:05:59;;;;;;;0.10;0.10;;;;;;;3.89;54.68;99396.09;5042905;28;20031;-40
2024/01/17 11:08:25;;;;;;;0.10;0.10;;;;;;;4.07;55.74;99391.72;5036451;28;20041;-39
2024/01/17 11:10:52;;;;;;;0.40;0.40;;;;;;;3.94;54.29;99381.09;5037567;28;20111;-39
2024/01/17 11:13:19;;;;;;;0.20;0.20;;;;;;;3.89;53.58;99384.84;5023309;28;20602;-40
2024/01/17 11:15:46;;;;;;;0.10;0.10;;;;;;;3.79;53.80;99366.28;5041914;28;20032;-40
2024/01/17 11:18:12;;;;;;;0.10;0.10;;;;;;;4.04;54.32;99367.59;5041834;28;20028;-39
2024/01/17 11:20:39;;;;;;;0.20;0.20;;;;;;;3.93;53.17;99361.19;5041817;28;20087;-40
2024/01/17 11:23:14;;;;;;;0.10;0.10;;;;;;;4.06;54.38;99344.91;5039857;28;20037;-39
2024/01/17 11:25:48;;;;;;;0.10;0.10;;;;;;;4.16;53.61;99348.72;5042218;28;20032;-40
2024/01/17 11:28:32;;;;;;;0.75;0.75;;;;;;;4.19;53.79;99351.16;5042556;28;20060;-39
2024/01/17 11:31:20;;;;;;;0.10;0.10;;;;;;;3.90;52.86;99353.53;5042157;28;20024;-40
2024/01/17 11:33:47;;;;;;;0.10;0.10;;;;;;;3.94;53.99;99339.44;5038113;28;20028;-40